Thunderstorms From: 26-05-2018 05:06 Until: 27-05-2018 05:00 warning for: Thunderstorms Level: Yellow info button

Although rather usual in this region, locally or potentially dangerous phenomena are expected. (such as local winds, summer thunderstorms, rising streams or high waves) Be aware and pay attention to the latest weather updates, especially if you carry out activities exposed to weather or close to a stream or shoreline. 


Meteo18 Weather Cam more information Meteo18 Weather Cam


warning for Thunderstorms more information blitzortung!


Rain radar more information rain snow radar


Visit our other weather sites:

Template documentation
and downloads

And another site



Weather Underground History page Text

Daily Summary for July 3, 2017 Units:  English    Metric   Both
« Previous Day
Next Day »
Daily Weekly Monthly Yearly Custom
  High: Low: Average:
Temperature: TemperatureC °F 14.9 °F 18.2 °F
Dew Point: DewpointC °F 13.3 °F 15 °F
Humidity: Humidity % 56 % 82 %
Wind Speed: WindSpeedKMH mph 0.0 mph 4.7 mph
Wind Gust: WindSpeedGustKMH mph - -
Wind:- - WSW
Pressure: PressurehPa in 1023.6 in -
Precipitation: 0.0 in    
Historical Graphs
 
 
Tabular Data for July 3, 2017
Time Temperature Dew Point Pressure Wind Wind Speed Wind Gust Humidity Rainfall Rate (Hourly)
TemperatureC °F DewpointC °F PressurehPa in Calm     Humidity % HourlyPrecipMM in
00:02 16.0 °F 15.4 °F 1026.3 in SSW 1.6 mph 9.7 mph 96 % 0.0 in
00:07 16.1 °F 15.5 °F 1026.0 in Calm   6.4 mph 96 % 0.0 in
00:12 16.0 °F 15.4 °F 1026.0 in Calm   6.4 mph 96 % 0.0 in
00:17 16.0 °F 15.4 °F 1026.0 in Calm   4.8 mph 96 % 0.0 in
00:22 15.9 °F 15.3 °F 1026.3 in SW 3.2 mph 4.8 mph 96 % 0.0 in
00:27 16.0 °F 15.4 °F 1026.0 in SW 3.2 mph 4.8 mph 96 % 0.0 in
00:32 16.1 °F 15.5 °F 1026.0 in SSW 3.2 mph 8.0 mph 96 % 0.0 in
00:42 16.1 °F 15.5 °F 1026.0 in SW 6.4 mph 12.9 mph 96 % 0.0 in
00:47 16.2 °F 15.6 °F 1026.0 in SW 1.6 mph 12.9 mph 96 % 0.0 in
00:52 16.1 °F 15.5 °F 1026.0 in SW 3.2 mph 11.3 mph 96 % 0.0 in
00:57 16.2 °F 15.6 °F 1026.0 in SW 1.6 mph 8.0 mph 96 % 0.0 in
01:02 16.2 °F 15.6 °F 1026.0 in SW 4.8 mph 8.0 mph 96 % 0.0 in
01:07 16.2 °F 15.6 °F 1026.0 in Calm   8.0 mph 96 % 0.0 in
01:12 16.2 °F 15.6 °F 1026.0 in WSW 4.8 mph 8.0 mph 96 % 0.0 in
01:17 16.2 °F 15.6 °F 1026.0 in Calm   8.0 mph 96 % 0.0 in
01:22 16.2 °F 15.6 °F 1026.0 in Calm   8.0 mph 96 % 0.0 in
01:32 16.2 °F 15.6 °F 1026.0 in Calm   6.4 mph 96 % 0.0 in
01:37 16.3 °F 15.7 °F 1026.0 in SW 1.6 mph 6.4 mph 96 % 0.0 in
01:42 16.3 °F 15.7 °F 1026.0 in SW 6.4 mph 6.4 mph 96 % 0.0 in
01:47 16.3 °F 15.7 °F 1026.0 in West 3.2 mph 12.9 mph 96 % 0.0 in
01:52 16.3 °F 15.7 °F 1026.0 in West 3.2 mph 12.9 mph 96 % 0.0 in
01:57 16.3 °F 15.5 °F 1026.0 in SW 3.2 mph 12.9 mph 95 % 0.0 in
02:02 16.3 °F 15.5 °F 1026.0 in SW 3.2 mph 11.3 mph 95 % 0.0 in
02:07 16.3 °F 15.5 °F 1026.0 in SW 3.2 mph 9.7 mph 95 % 0.0 in
02:12 16.2 °F 15.4 °F 1026.0 in SW 1.6 mph 9.7 mph 95 % 0.0 in
02:17 16.2 °F 15.4 °F 1026.0 in SSW 3.2 mph 9.7 mph 95 % 0.0 in
02:22 16.2 °F 15.4 °F 1026.0 in SW 3.2 mph 6.4 mph 95 % 0.0 in
02:27 16.2 °F 15.4 °F 1026.0 in WSW 6.4 mph 6.4 mph 95 % 0.0 in
02:32 16.2 °F 15.4 °F 1026.0 in West 6.4 mph 9.7 mph 95 % 0.0 in
02:37 16.1 °F 15.3 °F 1026.0 in WSW 3.2 mph 9.7 mph 95 % 0.0 in
02:42 16.2 °F 15.4 °F 1026.0 in West 3.2 mph 9.7 mph 95 % 0.0 in
02:47 16.1 °F 15.3 °F 1026.0 in WSW 1.6 mph 8.0 mph 95 % 0.0 in
02:52 16.1 °F 15.3 °F 1026.0 in West 8.0 mph 9.7 mph 95 % 0.0 in
02:57 16.1 °F 15.5 °F 1026.0 in West 3.2 mph 9.7 mph 96 % 0.0 in
03:02 16.1 °F 15.5 °F 1026.0 in SW 1.6 mph 9.7 mph 96 % 0.0 in
03:07 16.1 °F 15.5 °F 1026.0 in West 1.6 mph 8.0 mph 96 % 0.0 in
03:12 16.2 °F 15.6 °F 1026.0 in Calm   8.0 mph 96 % 0.0 in
03:17 16.2 °F 15.6 °F 1026.0 in Calm   3.2 mph 96 % 0.0 in
03:22 16.2 °F 15.6 °F 1026.0 in Calm   3.2 mph 96 % 0.0 in
03:27 16.2 °F 15.6 °F 1026.0 in Calm   1.6 mph 96 % 0.0 in
03:32 16.1 °F 15.5 °F 1026.0 in WSW 6.4 mph 6.4 mph 96 % 0.0 in
03:37 16.1 °F 15.5 °F 1026.0 in WSW 3.2 mph 6.4 mph 96 % 0.0 in
03:42 16.1 °F 15.5 °F 1026.0 in West 4.8 mph 6.4 mph 96 % 0.0 in
03:47 16.1 °F 15.5 °F 1026.0 in WSW 1.6 mph 6.4 mph 96 % 0.0 in
03:52 16.1 °F 15.5 °F 1026.0 in WSW 3.2 mph 6.4 mph 96 % 0.0 in
03:57 16.0 °F 15.4 °F 1026.0 in WSW 4.8 mph 6.4 mph 96 % 0.0 in
04:02 16.0 °F 15.4 °F 1025.6 in West 1.6 mph 6.4 mph 96 % 0.0 in
04:07 16.0 °F 15.4 °F 1025.6 in WSW 4.8 mph 6.4 mph 96 % 0.0 in
04:12 16.0 °F 15.4 °F 1025.6 in WSW 1.6 mph 6.4 mph 96 % 0.0 in
04:17 15.9 °F 15.3 °F 1025.6 in WSW 1.6 mph 6.4 mph 96 % 0.0 in
04:22 15.9 °F 15.3 °F 1025.6 in Calm   6.4 mph 96 % 0.0 in
04:27 15.9 °F 15.3 °F 1025.6 in Calm   4.8 mph 96 % 0.0 in
04:32 15.9 °F 15.3 °F 1025.6 in West 1.6 mph 3.2 mph 96 % 0.0 in
04:37 15.9 °F 15.3 °F 1025.6 in West 1.6 mph 3.2 mph 96 % 0.0 in
04:42 15.8 °F 15.2 °F 1025.6 in West 1.6 mph 3.2 mph 96 % 0.0 in
04:47 15.8 °F 15.2 °F 1025.6 in Calm   4.8 mph 96 % 0.0 in
04:52 15.8 °F 15.2 °F 1025.6 in Calm   4.8 mph 96 % 0.0 in
04:57 15.8 °F 15.2 °F 1025.6 in Calm   4.8 mph 96 % 0.0 in
05:02 15.8 °F 15.2 °F 1025.6 in Calm   4.8 mph 96 % 0.0 in
05:07 15.8 °F 15.2 °F 1025.6 in Calm     96 % 0.0 in
05:12 15.9 °F 15.3 °F 1025.6 in Calm     96 % 0.0 in
05:17 15.8 °F 15.2 °F 1025.6 in Calm     96 % 0.0 in
05:22 15.9 °F 15.3 °F 1025.6 in Calm     96 % 0.0 in
05:32 15.9 °F 15.3 °F 1025.6 in Calm     96 % 0.0 in
05:37 15.9 °F 15.3 °F 1025.6 in Calm     96 % 0.0 in
05:42 15.9 °F 15.3 °F 1025.6 in Calm     96 % 0.0 in
05:47 15.9 °F 15.3 °F 1025.6 in Calm     96 % 0.0 in
05:52 15.9 °F 15.3 °F 1025.6 in Calm     96 % 0.0 in
05:57 15.9 °F 15.3 °F 1025.6 in Calm     96 % 0.0 in
06:02 15.9 °F 15.3 °F 1025.6 in Calm     96 % 0.0 in
06:12 16.0 °F 15.4 °F 1025.6 in Calm     96 % 0.0 in
06:17 16.0 °F 15.4 °F 1025.6 in Calm     96 % 0.0 in
06:22 16.0 °F 15.4 °F 1025.6 in Calm     96 % 0.0 in
06:32 16.0 °F 15.4 °F 1025.6 in Calm   3.2 mph 96 % 0.0 in
06:42 16.0 °F 15.4 °F 1025.6 in Calm   3.2 mph 96 % 0.0 in
06:52 16.0 °F 15.4 °F 1025.6 in Calm     96 % 0.0 in
07:02 16.1 °F 15.6 °F 1025.6 in Calm     97 % 0.0 in
07:07 16.1 °F 15.6 °F 1025.6 in Calm     97 % 0.0 in
07:12 16.1 °F 15.6 °F 1025.6 in Calm     97 % 0.0 in
07:17 16.1 °F 15.5 °F 1026.0 in Calm     96 % 0.0 in
07:22 16.1 °F 15.6 °F 1026.0 in Calm     97 % 0.0 in
07:32 16.1 °F 15.6 °F 1026.0 in SSW 6.4 mph 6.4 mph 97 % 0.0 in
07:37 16.0 °F 15.5 °F 1026.0 in SSW 3.2 mph 8.0 mph 97 % 0.0 in
07:42 16.0 °F 15.5 °F 1026.0 in SW 4.8 mph 8.0 mph 97 % 0.0 in
07:47 16.0 °F 15.5 °F 1026.0 in SSW 4.8 mph 8.0 mph 97 % 0.0 in
07:52 15.9 °F 15.4 °F 1026.0 in SSW 3.2 mph 8.0 mph 97 % 0.0 in
08:02 15.9 °F 15.4 °F 1026.0 in SW 4.8 mph 11.3 mph 97 % 0.0 in
08:12 15.9 °F 15.4 °F 1026.0 in WSW 4.8 mph 11.3 mph 97 % 0.0 in
08:17 15.9 °F 15.4 °F 1026.0 in SW 3.2 mph 9.7 mph 97 % 0.0 in
08:22 15.9 °F 15.4 °F 1026.0 in West 4.8 mph 9.7 mph 97 % 0.0 in
08:32 16.0 °F 15.5 °F 1026.0 in SSW 3.2 mph 12.9 mph 97 % 0.0 in
08:37 16.0 °F 15.5 °F 1026.3 in SW 9.7 mph 12.9 mph 97 % 0.0 in
08:42 16.0 °F 15.5 °F 1026.3 in WSW 6.4 mph 9.7 mph 97 % 0.0 in
08:47 16.0 °F 15.5 °F 1026.3 in SW 6.4 mph 9.7 mph 97 % 0.0 in
08:52 15.9 °F 15.4 °F 1026.3 in SW 8.0 mph 14.5 mph 97 % 0.0 in
08:57 15.9 °F 15.4 °F 1026.3 in SW 6.4 mph 14.5 mph 97 % 0.0 in
09:02 15.9 °F 15.4 °F 1026.3 in SSW 8.0 mph 14.5 mph 97 % 0.0 in
09:12 16.1 °F 15.6 °F 1026.3 in SW 6.4 mph 12.9 mph 97 % 0.0 in
09:17 16.1 °F 15.6 °F 1026.3 in South 6.4 mph 12.9 mph 97 % 0.0 in
09:22 16.1 °F 15.6 °F 1026.3 in SW 6.4 mph 12.9 mph 97 % 0.0 in
09:32 16.1 °F 15.6 °F 1026.3 in SW 1.6 mph 14.5 mph 97 % 0.0 in
09:37 16.2 °F 15.7 °F 1026.3 in WSW 8.0 mph 12.9 mph 97 % 0.0 in
09:42 16.1 °F 15.6 °F 1026.3 in WSW 9.7 mph 14.5 mph 97 % 0.0 in
09:47 16.1 °F 15.6 °F 1026.3 in SW 6.4 mph 17.7 mph 97 % 0.0 in
09:52 16.1 °F 15.6 °F 1026.3 in SSW 6.4 mph 17.7 mph 97 % 0.0 in
09:57 16.1 °F 15.6 °F 1026.3 in WSW 8.0 mph 17.7 mph 97 % 0.0 in
10:02 15.9 °F 15.4 °F 1026.3 in West 8.0 mph 12.9 mph 97 % 0.0 in
10:12 16.0 °F 15.5 °F 1026.3 in WNW 11.3 mph 12.9 mph 97 % 0.0 in
10:17 16.1 °F 15.6 °F 1026.3 in WSW 3.2 mph 12.9 mph 97 % 0.0 in
10:22 16.2 °F 15.7 °F 1026.3 in WSW 4.8 mph 12.9 mph 97 % 0.0 in
10:27 16.2 °F 15.6 °F 1026.3 in West 11.3 mph 12.9 mph 96 % 0.0 in
10:32 16.2 °F 15.6 °F 1026.6 in WNW 9.7 mph 14.5 mph 96 % 0.0 in
10:37 16.2 °F 15.4 °F 1026.6 in West 4.8 mph 16.1 mph 95 % 0.0 in
10:42 16.2 °F 15.2 °F 1026.6 in West 11.3 mph 16.1 mph 94 % 0.0 in
10:47 16.2 °F 15.2 °F 1026.6 in SW 3.2 mph 17.7 mph 94 % 0.0 in
10:52 16.3 °F 15.2 °F 1026.6 in WSW 12.9 mph 17.7 mph 93 % 0.0 in
10:57 16.4 °F 15.3 °F 1026.6 in West 3.2 mph 16.1 mph 93 % 0.0 in
11:02 16.6 °F 15.3 °F 1026.3 in WSW 3.2 mph 14.5 mph 92 % 0.0 in
11:07 16.8 °F 15.3 °F 1026.3 in WNW 4.8 mph 14.5 mph 91 % 0.0 in
11:12 16.9 °F 15.2 °F 1026.3 in WNW 3.2 mph 14.5 mph 90 % 0.0 in
11:17 16.8 °F 15.0 °F 1026.0 in WNW 9.7 mph 12.9 mph 89 % 0.0 in
11:22 17.0 °F 15.3 °F 1026.3 in West 11.3 mph 16.1 mph 90 % 0.0 in
11:27 17.1 °F 15.3 °F 1026.3 in WSW 6.4 mph 17.7 mph 89 % 0.0 in
11:32 17.3 °F 15.5 °F 1026.3 in SW 4.8 mph 17.7 mph 89 % 0.0 in
11:37 17.4 °F 15.4 °F 1026.3 in West 8.0 mph 17.7 mph 88 % 0.0 in
11:42 17.6 °F 15.4 °F 1026.3 in WSW 8.0 mph 17.7 mph 87 % 0.0 in
11:47 17.7 °F 15.5 °F 1026.3 in West 4.8 mph 17.7 mph 87 % 0.0 in
11:52 17.6 °F 15.4 °F 1026.3 in West 6.4 mph 17.7 mph 87 % 0.0 in
11:57 17.6 °F 15.4 °F 1026.3 in SW 6.4 mph 14.5 mph 87 % 0.0 in
12:02 17.8 °F 15.8 °F 1026.3 in West 8.0 mph 12.9 mph 88 % 0.0 in
12:07 17.8 °F 15.6 °F 1026.3 in West 4.8 mph 11.3 mph 87 % 0.0 in
12:12 17.8 °F 15.4 °F 1026.0 in WSW 8.0 mph 12.9 mph 86 % 0.0 in
12:17 17.9 °F 15.5 °F 1026.0 in WNW 8.0 mph 14.5 mph 86 % 0.0 in
12:22 18.2 °F 16.0 °F 1026.0 in West 4.8 mph 14.5 mph 87 % 0.0 in
12:27 18.6 °F 16.0 °F 1026.0 in SW 4.8 mph 14.5 mph 85 % 0.0 in
12:32 18.7 °F 15.8 °F 1026.0 in West 3.2 mph 14.5 mph 83 % 0.0 in
12:42 18.9 °F 15.6 °F 1026.0 in West 8.0 mph 17.7 mph 81 % 0.0 in
12:47 19.4 °F 15.7 °F 1026.0 in WNW 6.4 mph 17.7 mph 79 % 0.0 in
12:52 19.3 °F 15.6 °F 1026.0 in WNW 8.0 mph 17.7 mph 79 % 0.0 in
12:57 19.4 °F 15.9 °F 1026.0 in West 12.9 mph 17.7 mph 80 % 0.0 in
13:02 19.6 °F 15.7 °F 1026.0 in SW 11.3 mph 17.7 mph 78 % 0.0 in
13:07 19.7 °F 16.0 °F 1026.0 in Calm   17.7 mph 79 % 0.0 in
13:17 19.6 °F 15.5 °F 1026.0 in West 11.3 mph 16.1 mph 77 % 0.0 in
13:22 19.7 °F 16.0 °F 1026.0 in WSW 8.0 mph 17.7 mph 79 % 0.0 in
13:27 19.9 °F 15.7 °F 1026.0 in WNW 6.4 mph 17.7 mph 77 % 0.0 in
13:32 20.0 °F 15.8 °F 1025.6 in West 9.7 mph 17.7 mph 77 % 0.0 in
13:37 20.2 °F 16.0 °F 1025.6 in SW 8.0 mph 17.7 mph 77 % 0.0 in
13:42 20.6 °F 15.8 °F 1025.6 in West 6.4 mph 16.1 mph 74 % 0.0 in
13:47 20.4 °F 15.8 °F 1025.6 in NW 8.0 mph 17.7 mph 75 % 0.0 in
13:52 20.4 °F 16.0 °F 1025.3 in SSE 1.6 mph 17.7 mph 76 % 0.0 in
13:57 20.6 °F 15.8 °F 1025.3 in West 11.3 mph 17.7 mph 74 % 0.0 in
14:02 20.8 °F 16.0 °F 1025.3 in NW 9.7 mph 17.7 mph 74 % 0.0 in
14:07 21.1 °F 16.1 °F 1025.3 in WSW 8.0 mph 17.7 mph 73 % 0.0 in
14:12 20.9 °F 15.9 °F 1025.3 in WSW 16.1 mph 19.3 mph 73 % 0.0 in
14:17 20.8 °F 16.0 °F 1025.3 in West 12.9 mph 20.9 mph 74 % 0.0 in
14:22 20.9 °F 15.7 °F 1025.3 in SW 6.4 mph 20.9 mph 72 % 0.0 in
14:27 21.1 °F 16.1 °F 1025.3 in WSW 16.1 mph 20.9 mph 73 % 0.0 in
14:32 20.7 °F 15.7 °F 1025.3 in West 16.1 mph 17.7 mph 73 % 0.0 in
14:37 20.5 °F 15.7 °F 1025.3 in West 6.4 mph 17.7 mph 74 % 0.0 in
14:42 20.9 °F 16.1 °F 1025.3 in WNW 4.8 mph 19.3 mph 74 % 0.0 in
14:47 21.0 °F 15.5 °F 1025.3 in SW 9.7 mph 19.3 mph 71 % 0.0 in
14:52 20.8 °F 15.6 °F 1025.3 in WSW 6.4 mph 24.1 mph 72 % 0.0 in
14:57 20.8 °F 15.6 °F 1025.3 in West 9.7 mph 24.1 mph 72 % 0.0 in
15:02 20.9 °F 15.7 °F 1025.3 in WSW 11.3 mph 22.5 mph 72 % 0.0 in
15:07 20.8 °F 16.0 °F 1025.3 in WSW 8.0 mph 22.5 mph 74 % 0.0 in
15:12 21.1 °F 15.9 °F 1025.3 in West 14.5 mph 19.3 mph 72 % 0.0 in
15:17 20.7 °F 15.3 °F 1025.3 in WSW 11.3 mph 19.3 mph 71 % 0.0 in
15:22 20.4 °F 15.6 °F 1025.3 in WNW 19.3 mph 19.3 mph 74 % 0.0 in
15:27 20.1 °F 15.5 °F 1025.3 in West 16.1 mph 24.1 mph 75 % 0.0 in
15:32 20.2 °F 15.4 °F 1025.3 in West 12.9 mph 24.1 mph 74 % 0.0 in
15:37 20.4 °F 15.8 °F 1025.3 in SW 9.7 mph 20.9 mph 75 % 0.0 in
15:42 20.3 °F 15.3 °F 1025.3 in West 6.4 mph 20.9 mph 73 % 0.0 in
15:47 20.6 °F 15.8 °F 1025.3 in West 6.4 mph 20.9 mph 74 % 0.0 in
15:52 20.6 °F 15.6 °F 1024.9 in West 11.3 mph 20.9 mph 73 % 0.0 in
15:57 20.6 °F 15.4 °F 1024.9 in WNW 4.8 mph 17.7 mph 72 % 0.0 in
16:02 20.7 °F 15.5 °F 1024.9 in West 11.3 mph 17.7 mph 72 % 0.0 in
16:07 20.8 °F 15.3 °F 1024.9 in WNW 3.2 mph 20.9 mph 71 % 0.0 in
16:12 20.8 °F 15.3 °F 1024.9 in WNW 12.9 mph 20.9 mph 71 % 0.0 in
16:17 20.6 °F 15.4 °F 1024.9 in WSW 17.7 mph 22.5 mph 72 % 0.0 in
16:22 20.3 °F 15.1 °F 1024.9 in WNW 17.7 mph 22.5 mph 72 % 0.0 in
16:27 20.6 °F 15.6 °F 1024.9 in West 6.4 mph 22.5 mph 73 % 0.0 in
16:32 20.8 °F 15.3 °F 1024.9 in West 4.8 mph 22.5 mph 71 % 0.0 in
16:37 21.2 °F 15.5 °F 1024.9 in West 16.1 mph 20.9 mph 70 % 0.0 in
16:42 21.2 °F 15.1 °F 1024.9 in West 11.3 mph 19.3 mph 68 % 0.0 in
16:47 21.2 °F 15.1 °F 1024.9 in WSW 4.8 mph 19.3 mph 68 % 0.0 in
16:52 21.4 °F 14.8 °F 1024.9 in West 14.5 mph 19.3 mph 66 % 0.0 in
16:57 21.2 °F 14.8 °F 1024.9 in West 6.4 mph 22.5 mph 67 % 0.0 in
17:02 21.3 °F 15.2 °F 1024.6 in WSW 12.9 mph 22.5 mph 68 % 0.0 in
17:12 21.4 °F 14.3 °F 1024.6 in WSW 4.8 mph 22.5 mph 64 % 0.0 in
17:17 21.4 °F 14.3 °F 1024.6 in Calm   22.5 mph 64 % 0.0 in
17:22 21.8 °F 14.4 °F 1024.6 in West 6.4 mph 20.9 mph 63 % 0.0 in
17:27 21.6 °F 14.3 °F 1024.3 in WNW 11.3 mph 17.7 mph 63 % 0.0 in
17:32 21.8 °F 14.2 °F 1024.3 in West 11.3 mph 17.7 mph 62 % 0.0 in
17:37 21.9 °F 14.3 °F 1024.3 in SW 3.2 mph 17.7 mph 62 % 0.0 in
17:42 22.2 °F 14.3 °F 1024.3 in West 8.0 mph 17.7 mph 61 % 0.0 in
17:47 22.6 °F 14.7 °F 1024.3 in SW 11.3 mph 17.7 mph 61 % 0.0 in
17:52 22.5 °F 14.1 °F 1024.3 in WSW 9.7 mph 14.5 mph 59 % 0.0 in
17:57 22.3 °F 13.6 °F 1024.3 in WSW 8.0 mph 16.1 mph 58 % 0.0 in
18:02 22.3 °F 14.4 °F 1024.3 in West 8.0 mph 17.7 mph 61 % 0.0 in
18:07 22.6 °F 14.2 °F 1023.9 in West 11.3 mph 17.7 mph 59 % 0.0 in
18:12 22.7 °F 14.5 °F 1023.9 in NW 8.0 mph 17.7 mph 60 % 0.0 in
18:17 22.6 °F 13.9 °F 1023.9 in West 6.4 mph 20.9 mph 58 % 0.0 in
18:22 22.6 °F 13.9 °F 1023.9 in West 9.7 mph 20.9 mph 58 % 0.0 in
18:27 22.4 °F 14.0 °F 1023.9 in West 4.8 mph 20.9 mph 59 % 0.0 in
18:32 22.4 °F 14.0 °F 1023.9 in Calm   20.9 mph 59 % 0.0 in
18:42 22.8 °F 13.8 °F 1023.9 in WNW 6.4 mph 16.1 mph 57 % 0.0 in
18:47 22.7 °F 13.7 °F 1023.9 in WNW 3.2 mph 19.3 mph 57 % 0.0 in
18:52 22.8 °F 13.6 °F 1023.9 in West 6.4 mph 19.3 mph 56 % 0.0 in
18:57 22.8 °F 13.8 °F 1023.9 in WNW 8.0 mph 19.3 mph 57 % 0.0 in
19:02 22.7 °F 14.0 °F 1023.9 in WNW 9.7 mph 16.1 mph 58 % 0.0 in
19:07 22.6 °F 13.9 °F 1023.9 in SW 6.4 mph 16.1 mph 58 % 0.0 in
19:12 22.6 °F 13.9 °F 1023.9 in West 4.8 mph 12.9 mph 58 % 0.0 in
19:17 22.6 °F 13.6 °F 1023.9 in WSW 4.8 mph 12.9 mph 57 % 0.0 in
19:22 22.5 °F 13.8 °F 1023.9 in WSW 3.2 mph 14.5 mph 58 % 0.0 in
19:27 22.6 °F 13.6 °F 1023.9 in NW 4.8 mph 14.5 mph 57 % 0.0 in
19:32 22.7 °F 14.0 °F 1023.9 in WNW 4.8 mph 14.5 mph 58 % 0.0 in
19:37 22.7 °F 13.7 °F 1023.9 in NW 8.0 mph 14.5 mph 57 % 0.0 in
19:42 22.7 °F 14.0 °F 1023.9 in WNW 3.2 mph 14.5 mph 58 % 0.0 in
19:47 22.7 °F 14.0 °F 1023.9 in Calm   12.9 mph 58 % 0.0 in
19:52 22.8 °F 13.8 °F 1023.9 in West 3.2 mph 9.7 mph 57 % 0.0 in
19:57 22.7 °F 14.0 °F 1023.9 in SSW 4.8 mph 8.0 mph 58 % 0.0 in
20:02 22.7 °F 14.0 °F 1023.9 in WNW 4.8 mph 8.0 mph 58 % 0.0 in
20:07 22.7 °F 14.0 °F 1023.9 in WSW 6.4 mph 9.7 mph 58 % 0.0 in
20:17 22.7 °F 14.0 °F 1023.9 in West 1.6 mph 14.5 mph 58 % 0.0 in
20:22 22.8 °F 13.8 °F 1023.9 in WSW 3.2 mph 12.9 mph 57 % 0.0 in
20:32 22.9 °F 14.2 °F 1023.9 in Calm   8.0 mph 58 % 0.0 in
20:37 22.9 °F 13.9 °F 1023.6 in NW 3.2 mph 6.4 mph 57 % 0.0 in
20:42 22.8 °F 14.1 °F 1023.6 in WNW 3.2 mph 6.4 mph 58 % 0.0 in
20:47 22.8 °F 14.1 °F 1023.9 in Calm   6.4 mph 58 % 0.0 in
20:52 22.8 °F 14.4 °F 1023.6 in WNW 1.6 mph 4.8 mph 59 % 0.0 in
20:57 22.7 °F 14.3 °F 1023.9 in WNW 3.2 mph 3.2 mph 59 % 0.0 in
21:02 22.3 °F 14.2 °F 1023.6 in WNW 3.2 mph 4.8 mph 60 % 0.0 in
21:07 22.2 °F 14.3 °F 1023.9 in WNW 1.6 mph 4.8 mph 61 % 0.0 in
21:12 21.9 °F 14.0 °F 1023.6 in WNW 1.6 mph 4.8 mph 61 % 0.0 in
21:17 21.9 °F 14.3 °F 1023.6 in Calm   3.2 mph 62 % 0.0 in
21:27 21.9 °F 14.5 °F 1023.6 in Calm   3.2 mph 63 % 0.0 in
21:32 21.3 °F 14.5 °F 1023.6 in Calm   1.6 mph 65 % 0.0 in
21:37 20.2 °F 13.9 °F 1023.6 in Calm   1.6 mph 67 % 0.0 in
21:42 19.5 °F 13.9 °F 1023.6 in Calm   1.6 mph 70 % 0.0 in
21:47 19.2 °F 13.8 °F 1023.6 in Calm   1.6 mph 71 % 0.0 in
21:52 18.9 °F 13.7 °F 1023.6 in Calm   1.6 mph 72 % 0.0 in
21:57 18.4 °F 13.9 °F 1023.6 in Calm   1.6 mph 75 % 0.0 in
22:02 18.2 °F 14.1 °F 1023.6 in Calm     77 % 0.0 in
22:07 17.9 °F 14.0 °F 1023.6 in Calm     78 % 0.0 in
22:12 17.8 °F 13.9 °F 1023.6 in Calm     78 % 0.0 in
22:17 17.8 °F 14.1 °F 1023.6 in Calm     79 % 0.0 in
22:22 17.7 °F 14.0 °F 1023.6 in Calm     79 % 0.0 in
22:32 16.9 °F 13.8 °F 1023.9 in Calm     82 % 0.0 in
22:37 16.6 °F 13.9 °F 1023.6 in Calm     84 % 0.0 in
22:42 16.3 °F 13.8 °F 1023.6 in Calm     85 % 0.0 in
22:47 16.3 °F 14.0 °F 1023.9 in Calm     86 % 0.0 in
22:52 16.2 °F 13.9 °F 1023.6 in Calm     86 % 0.0 in
22:57 16.2 °F 13.9 °F 1023.9 in Calm     86 % 0.0 in
23:02 16.3 °F 13.6 °F 1023.6 in Calm     84 % 0.0 in
23:12 16.3 °F 13.6 °F 1023.6 in Calm     84 % 0.0 in
23:17 16.2 °F 13.5 °F 1023.9 in Calm     84 % 0.0 in
23:22 16.0 °F 13.5 °F 1023.9 in Calm     85 % 0.0 in
23:27 15.8 °F 13.5 °F 1023.9 in Calm     86 % 0.0 in
23:32 15.6 °F 13.4 °F 1023.9 in Calm     87 % 0.0 in
23:37 15.3 °F 13.3 °F 1023.9 in Calm     88 % 0.0 in
23:42 15.1 °F 13.3 °F 1023.9 in Calm     89 % 0.0 in
23:47 15.0 °F 13.4 °F 1023.9 in Calm     90 % 0.0 in
23:52 15.0 °F 13.4 °F 1023.9 in Calm     90 % 0.0 in
23:57 14.9 °F 13.3 °F 1023.9 in Calm     90 % 0.0 in
Meteo18
Compliments of Weather Underground - 4 mb

Script developed by  Jim McMurry - jmcmurry@mwt.net Adapted for the template by  Wim van der Kuil - Leuven-Template.eu

You find our weather info also at:

European Weather Network

Weather Underground

Equipment we use:

Weather-station
Davis Vue

Weather-program
Meteobridge

Weather-server
Raspberry PI 2 B+

Provider
1 and 1

Davis Vue

Meteobridge

Raspberry PI 2 B+

1 and 1